sensor_id;sensor_type;location;lat;lon;timestamp;temperature;humidity
15676;DHT22;7938;47.666;9.434;2023-02-20T05:01:02;4.80;99.90
15676;DHT22;7938;47.666;9.434;2023-02-20T05:03:29;4.70;99.90
15676;DHT22;7938;47.666;9.434;2023-02-20T05:05:56;4.70;99.90
15676;DHT22;7938;47.666;9.434;2023-02-20T05:08:22;4.70;99.90
15676;DHT22;7938;47.666;9.434;2023-02-20T05:10:49;4.70;99.90
15676;DHT22;7938;47.666;9.434;2023-02-20T05:13:16;4.70;99.90
15676;DHT22;7938;47.666;9.434;2023-02-20T05:15:43;4.60;99.90
15676;DHT22;7938;47.666;9.434;2023-02-20T05:18:11;4.60;99.90
15676;DHT22;7938;47.666;9.434;2023-02-20T05:20:38;4.50;99.90
15676;DHT22;7938;47.666;9.434;2023-02-20T05:23:23;4.60;99.90
15676;DHT22;7938;47.666;9.434;2023-02-20T05:25:50;4.60;99.90
15676;DHT22;7938;47.666;9.434;2023-02-20T05:28:19;4.60;99.90
15676;DHT22;7938;47.666;9.434;2023-02-20T05:30:46;4.60;99.90
15676;DHT22;7938;47.666;9.434;2023-02-20T05:33:14;4.60;99.90
15676;DHT22;7938;47.666;9.434;2023-02-20T05:35:41;4.40;99.90
15676;DHT22;7938;47.666;9.434;2023-02-20T05:38:08;4.20;99.90
15676;DHT22;7938;47.666;9.434;2023-02-20T05:40:35;4.00;99.90
15676;DHT22;7938;47.666;9.434;2023-02-20T05:43:01;4.00;99.90
15676;DHT22;7938;47.666;9.434;2023-02-20T05:45:28;4.00;99.90
15676;DHT22;7938;47.666;9.434;2023-02-20T05:47:55;3.90;99.90
15676;DHT22;7938;47.666;9.434;2023-02-20T05:50:23;3.90;99.90
15676;DHT22;7938;47.666;9.434;2023-02-20T05:52:50;3.90;99.90
15676;DHT22;7938;47.666;9.434;2023-02-20T05:55:17;3.90;99.90
15676;DHT22;7938;47.666;9.434;2023-02-20T05:57:44;4.00;99.90
15676;DHT22;7938;47.666;9.434;2023-02-20T06:00:11;3.80;99.90
15676;DHT22;7938;47.666;9.434;2023-02-20T06:02:39;3.60;99.90
15676;DHT22;7938;47.666;9.434;2023-02-20T06:05:06;3.50;99.90
15676;DHT22;7938;47.666;9.434;2023-02-20T06:07:34;3.40;99.90
15676;DHT22;7938;47.666;9.434;2023-02-20T06:10:01;3.30;99.90
15676;DHT22;7938;47.666;9.434;2023-02-20T06:12:28;3.30;99.90
15676;DHT22;7938;47.666;9.434;2023-02-20T06:14:55;3.30;99.90
15676;DHT22;7938;47.666;9.434;2023-02-20T06:17:22;3.30;99.90
15676;DHT22;7938;47.666;9.434;2023-02-20T06:19:49;3.10;99.90
15676;DHT22;7938;47.666;9.434;2023-02-20T06:22:16;3.00;99.90
15676;DHT22;7938;47.666;9.434;2023-02-20T06:24:45;3.00;99.90
15676;DHT22;7938;47.666;9.434;2023-02-20T06:27:13;2.90;99.90
15676;DHT22;7938;47.666;9.434;2023-02-20T06:29:40;2.90;99.90
15676;DHT22;7938;47.666;9.434;2023-02-20T06:32:07;2.90;99.90
15676;DHT22;7938;47.666;9.434;2023-02-20T06:34:34;2.90;99.90
15676;DHT22;7938;47.666;9.434;2023-02-20T06:37:02;2.90;99.90
15676;DHT22;7938;47.666;9.434;2023-02-20T06:39:30;2.90;99.90
15676;DHT22;7938;47.666;9.434;2023-02-20T06:41:59;3.00;99.90
15676;DHT22;7938;47.666;9.434;2023-02-20T06:44:26;3.00;99.90
15676;DHT22;7938;47.666;9.434;2023-02-20T06:46:53;3.10;99.90
15676;DHT22;7938;47.666;9.434;2023-02-20T06:49:20;3.10;99.90
15676;DHT22;7938;47.666;9.434;2023-02-20T06:51:46;3.00;99.90
15676;DHT22;7938;47.666;9.434;2023-02-20T06:54:13;3.00;99.90
15676;DHT22;7938;47.666;9.434;2023-02-20T06:56:40;3.00;99.90
15676;DHT22;7938;47.666;9.434;2023-02-20T06:59:08;3.10;99.90
15676;DHT22;7938;47.666;9.434;2023-02-20T07:01:40;3.00;99.90
15676;DHT22;7938;47.666;9.434;2023-02-20T07:04:14;3.00;99.90
15676;DHT22;7938;47.666;9.434;2023-02-20T07:06:41;3.00;99.90
15676;DHT22;7938;47.666;9.434;2023-02-20T07:09:08;2.90;99.90
15676;DHT22;7938;47.666;9.434;2023-02-20T07:11:35;2.90;99.90
15676;DHT22;7938;47.666;9.434;2023-02-20T07:14:03;2.90;99.90
15676;DHT22;7938;47.666;9.434;2023-02-20T07:16:31;3.00;99.90
15676;DHT22;7938;47.666;9.434;2023-02-20T07:18:58;3.00;99.90
15676;DHT22;7938;47.666;9.434;2023-02-20T07:21:26;3.20;99.90
15676;DHT22;7938;47.666;9.434;2023-02-20T07:23:53;3.20;99.90
15676;DHT22;7938;47.666;9.434;2023-02-20T07:26:23;3.30;99.90
15676;DHT22;7938;47.666;9.434;2023-02-20T07:28:50;3.40;99.90
15676;DHT22;7938;47.666;9.434;2023-02-20T07:31:18;3.40;99.90
15676;DHT22;7938;47.666;9.434;2023-02-20T07:33:46;3.40;99.90
15676;DHT22;7938;47.666;9.434;2023-02-20T07:36:14;3.40;99.90
15676;DHT22;7938;47.666;9.434;2023-02-20T07:38:41;3.50;99.90
15676;DHT22;7938;47.666;9.434;2023-02-20T07:41:10;3.70;99.90
15676;DHT22;7938;47.666;9.434;2023-02-20T07:43:40;3.70;99.90
15676;DHT22;7938;47.666;9.434;2023-02-20T07:46:07;3.80;99.90
15676;DHT22;7938;47.666;9.434;2023-02-20T07:48:34;4.00;99.90
15676;DHT22;7938;47.666;9.434;2023-02-20T07:51:03;4.10;99.90
15676;DHT22;7938;47.666;9.434;2023-02-20T07:53:30;4.20;99.90
15676;DHT22;7938;47.666;9.434;2023-02-20T07:55:57;4.30;99.90
15676;DHT22;7938;47.666;9.434;2023-02-20T07:58:24;4.40;99.90
15676;DHT22;7938;47.666;9.434;2023-02-20T08:00:51;4.60;99.90
15676;DHT22;7938;47.666;9.434;2023-02-20T08:03:18;4.60;99.90
15676;DHT22;7938;47.666;9.434;2023-02-20T08:05:45;4.70;99.90
15676;DHT22;7938;47.666;9.434;2023-02-20T08:08:14;4.80;99.90
15676;DHT22;7938;47.666;9.434;2023-02-20T08:10:41;5.20;99.90
15676;DHT22;7938;47.666;9.434;2023-02-20T08:13:07;5.20;99.90
15676;DHT22;7938;47.666;9.434;2023-02-20T08:15:34;5.40;99.90
15676;DHT22;7938;47.666;9.434;2023-02-20T08:18:01;5.50;99.90
15676;DHT22;7938;47.666;9.434;2023-02-20T08:20:28;5.70;99.90
15676;DHT22;7938;47.666;9.434;2023-02-20T08:22:55;5.70;99.90
15676;DHT22;7938;47.666;9.434;2023-02-20T08:25:26;5.90;99.90
15676;DHT22;7938;47.666;9.434;2023-02-20T08:27:53;6.00;99.90
15676;DHT22;7938;47.666;9.434;2023-02-20T08:32:49;6.20;99.90
15676;DHT22;7938;47.666;9.434;2023-02-20T08:35:16;6.30;99.90
15676;DHT22;7938;47.666;9.434;2023-02-20T08:37:43;6.40;99.90
15676;DHT22;7938;47.666;9.434;2023-02-20T08:40:11;6.80;99.90
15676;DHT22;7938;47.666;9.434;2023-02-20T08:42:40;6.70;99.90
15676;DHT22;7938;47.666;9.434;2023-02-20T08:45:07;6.90;99.90
15676;DHT22;7938;47.666;9.434;2023-02-20T08:47:35;7.00;99.90
15676;DHT22;7938;47.666;9.434;2023-02-20T08:50:02;7.10;99.90
15676;DHT22;7938;47.666;9.434;2023-02-20T08:52:29;7.40;99.90
15676;DHT22;7938;47.666;9.434;2023-02-20T08:54:56;7.50;99.90
15676;DHT22;7938;47.666;9.434;2023-02-20T08:57:23;7.60;99.90
15676;DHT22;7938;47.666;9.434;2023-02-20T08:59:52;7.70;99.90
15676;DHT22;7938;47.666;9.434;2023-02-20T09:02:22;7.80;99.90
15676;DHT22;7938;47.666;9.434;2023-02-20T09:04:53;7.80;99.90
15676;DHT22;7938;47.666;9.434;2023-02-20T09:07:20;7.90;99.90
15676;DHT22;7938;47.666;9.434;2023-02-20T09:09:47;7.80;99.90
15676;DHT22;7938;47.666;9.434;2023-02-20T09:12:15;7.90;99.90
15676;DHT22;7938;47.666;9.434;2023-02-20T09:14:43;7.90;99.90
15676;DHT22;7938;47.666;9.434;2023-02-20T09:17:11;8.00;99.90
15676;DHT22;7938;47.666;9.434;2023-02-20T09:19:38;8.10;99.90
15676;DHT22;7938;47.666;9.434;2023-02-20T09:22:05;8.30;99.90
15676;DHT22;7938;47.666;9.434;2023-02-20T09:24:32;8.40;99.90
15676;DHT22;7938;47.666;9.434;2023-02-20T09:27:01;8.50;99.90
15676;DHT22;7938;47.666;9.434;2023-02-20T09:29:28;8.50;99.90
15676;DHT22;7938;47.666;9.434;2023-02-20T09:31:55;8.60;99.90
15676;DHT22;7938;47.666;9.434;2023-02-20T09:34:24;8.70;99.90
15676;DHT22;7938;47.666;9.434;2023-02-20T09:36:51;8.60;99.90
15676;DHT22;7938;47.666;9.434;2023-02-20T09:39:18;8.80;99.90
15676;DHT22;7938;47.666;9.434;2023-02-20T09:41:57;8.80;99.90
15676;DHT22;7938;47.666;9.434;2023-02-20T09:44:34;8.80;99.90
15676;DHT22;7938;47.666;9.434;2023-02-20T09:47:18;9.00;99.90
15676;DHT22;7938;47.666;9.434;2023-02-20T09:49:52;8.90;99.90
15676;DHT22;7938;47.666;9.434;2023-02-20T09:52:22;8.90;99.90
15676;DHT22;7938;47.666;9.434;2023-02-20T09:54:52;8.80;99.90
15676;DHT22;7938;47.666;9.434;2023-02-20T09:57:23;8.90;99.90
15676;DHT22;7938;47.666;9.434;2023-02-20T09:59:53;9.00;99.90
15676;DHT22;7938;47.666;9.434;2023-02-20T10:02:27;9.10;99.90
15676;DHT22;7938;47.666;9.434;2023-02-20T10:04:58;9.20;99.90
15676;DHT22;7938;47.666;9.434;2023-02-20T10:07:30;9.30;99.90
15676;DHT22;7938;47.666;9.434;2023-02-20T10:09:59;9.20;99.90
15676;DHT22;7938;47.666;9.434;2023-02-20T10:12:30;9.40;99.90
15676;DHT22;7938;47.666;9.434;2023-02-20T10:15:14;9.40;99.90
15676;DHT22;7938;47.666;9.434;2023-02-20T10:17:51;9.40;99.90
15676;DHT22;7938;47.666;9.434;2023-02-20T10:20:28;9.50;99.90
15676;DHT22;7938;47.666;9.434;2023-02-20T10:23:01;9.50;99.90
15676;DHT22;7938;47.666;9.434;2023-02-20T10:25:34;9.50;99.90
15676;DHT22;7938;47.666;9.434;2023-02-20T10:28:06;9.60;99.90
15676;DHT22;7938;47.666;9.434;2023-02-20T10:30:37;9.70;99.90
15676;DHT22;7938;47.666;9.434;2023-02-20T10:33:18;9.60;99.90
15676;DHT22;7938;47.666;9.434;2023-02-20T10:35:50;9.70;99.90
15676;DHT22;7938;47.666;9.434;2023-02-20T10:38:22;9.70;99.90
15676;DHT22;7938;47.666;9.434;2023-02-20T10:40:56;9.90;99.90
15676;DHT22;7938;47.666;9.434;2023-02-20T10:43:29;9.90;99.90
15676;DHT22;7938;47.666;9.434;2023-02-20T10:46:04;10.00;99.90
15676;DHT22;7938;47.666;9.434;2023-02-20T10:48:34;10.10;99.90
15676;DHT22;7938;47.666;9.434;2023-02-20T10:51:08;10.30;99.90
15676;DHT22;7938;47.666;9.434;2023-02-20T10:53:39;10.30;99.90
15676;DHT22;7938;47.666;9.434;2023-02-20T10:56:11;10.30;99.90
15676;DHT22;7938;47.666;9.434;2023-02-20T10:58:41;10.20;99.90
15676;DHT22;7938;47.666;9.434;2023-02-20T11:01:14;10.20;99.90
15676;DHT22;7938;47.666;9.434;2023-02-20T11:03:46;10.20;99.90
15676;DHT22;7938;47.666;9.434;2023-02-20T11:06:17;10.20;99.90
15676;DHT22;7938;47.666;9.434;2023-02-20T11:08:45;10.30;99.90
15676;DHT22;7938;47.666;9.434;2023-02-20T11:11:25;10.30;99.90
15676;DHT22;7938;47.666;9.434;2023-02-20T11:13:54;10.40;99.90
15676;DHT22;7938;47.666;9.434;2023-02-20T11:16:23;10.40;99.90
15676;DHT22;7938;47.666;9.434;2023-02-20T11:18:55;10.40;99.90
15676;DHT22;7938;47.666;9.434;2023-02-20T11:21:36;10.10;99.90
15676;DHT22;7938;47.666;9.434;2023-02-20T11:27:06;10.10;99.90
15676;DHT22;7938;47.666;9.434;2023-02-20T11:29:41;10.00;99.90
15676;DHT22;7938;47.666;9.434;2023-02-20T11:32:27;9.90;99.90
15676;DHT22;7938;47.666;9.434;2023-02-20T11:35:19;9.90;99.90
15676;DHT22;7938;47.666;9.434;2023-02-20T11:37:50;9.90;99.90
15676;DHT22;7938;47.666;9.434;2023-02-20T11:42:50;10.10;99.90
15676;DHT22;7938;47.666;9.434;2023-02-20T11:45:22;10.20;99.90
15676;DHT22;7938;47.666;9.434;2023-02-20T11:48:07;10.30;99.90
15676;DHT22;7938;47.666;9.434;2023-02-20T11:50:39;10.40;99.90
15676;DHT22;7938;47.666;9.434;2023-02-20T11:53:18;10.50;99.90
15676;DHT22;7938;47.666;9.434;2023-02-20T11:55:46;10.60;99.90
15676;DHT22;7938;47.666;9.434;2023-02-20T11:58:20;10.70;99.90
15676;DHT22;7938;47.666;9.434;2023-02-20T12:00:49;11.10;99.90
15676;DHT22;7938;47.666;9.434;2023-02-20T12:03:20;11.10;99.90
15676;DHT22;7938;47.666;9.434;2023-02-20T12:05:48;11.30;99.90
15676;DHT22;7938;47.666;9.434;2023-02-20T12:08:45;11.40;99.90
15676;DHT22;7938;47.666;9.434;2023-02-20T12:11:16;11.90;99.90
15676;DHT22;7938;47.666;9.434;2023-02-20T12:13:46;12.00;99.90
15676;DHT22;7938;47.666;9.434;2023-02-20T12:16:31;12.40;99.90
15676;DHT22;7938;47.666;9.434;2023-02-20T12:19:04;12.80;99.90
15676;DHT22;7938;47.666;9.434;2023-02-20T12:21:44;12.90;99.90
15676;DHT22;7938;47.666;9.434;2023-02-20T12:24:40;12.90;99.90
15676;DHT22;7938;47.666;9.434;2023-02-20T12:27:26;12.60;99.90
15676;DHT22;7938;47.666;9.434;2023-02-20T12:30:05;12.60;99.90
15676;DHT22;7938;47.666;9.434;2023-02-20T12:32:47;12.30;99.90
15676;DHT22;7938;47.666;9.434;2023-02-20T12:35:28;12.20;99.90
15676;DHT22;7938;47.666;9.434;2023-02-20T12:38:05;12.20;99.90
15676;DHT22;7938;47.666;9.434;2023-02-20T12:40:50;12.30;99.90
15676;DHT22;7938;47.666;9.434;2023-02-20T12:43:26;12.30;99.90
15676;DHT22;7938;47.666;9.434;2023-02-20T12:46:05;12.40;99.90
15676;DHT22;7938;47.666;9.434;2023-02-20T12:48:42;12.40;99.90
15676;DHT22;7938;47.666;9.434;2023-02-20T12:51:24;12.40;99.90
15676;DHT22;7938;47.666;9.434;2023-02-20T12:54:06;12.40;99.90
15676;DHT22;7938;47.666;9.434;2023-02-20T12:56:57;12.30;99.90
15676;DHT22;7938;47.666;9.434;2023-02-20T12:59:29;12.30;99.90
15676;DHT22;7938;47.666;9.434;2023-02-20T13:02:03;12.40;99.90
15676;DHT22;7938;47.666;9.434;2023-02-20T13:04:42;12.40;99.90
15676;DHT22;7938;47.666;9.434;2023-02-20T13:07:16;12.40;99.90
15676;DHT22;7938;47.666;9.434;2023-02-20T13:09:53;12.30;99.90
15676;DHT22;7938;47.666;9.434;2023-02-20T13:12:24;12.30;99.90
15676;DHT22;7938;47.666;9.434;2023-02-20T13:15:01;12.40;99.90
15676;DHT22;7938;47.666;9.434;2023-02-20T13:17:38;12.60;99.90
15676;DHT22;7938;47.666;9.434;2023-02-20T13:20:13;12.50;99.90
15676;DHT22;7938;47.666;9.434;2023-02-20T13:22:42;12.40;99.90
15676;DHT22;7938;47.666;9.434;2023-02-20T13:25:35;12.50;99.90
15676;DHT22;7938;47.666;9.434;2023-02-20T13:28:21;12.60;99.90
15676;DHT22;7938;47.666;9.434;2023-02-20T13:37:03;12.60;99.90
15676;DHT22;7938;47.666;9.434;2023-02-20T13:39:37;12.70;99.90
15676;DHT22;7938;47.666;9.434;2023-02-20T13:42:33;12.70;99.90
15676;DHT22;7938;47.666;9.434;2023-02-20T13:45:35;12.70;99.90
15676;DHT22;7938;47.666;9.434;2023-02-20T13:48:39;12.80;99.90
15676;DHT22;7938;47.666;9.434;2023-02-20T13:51:32;12.70;99.90
15676;DHT22;7938;47.666;9.434;2023-02-20T13:54:17;12.60;99.90
15676;DHT22;7938;47.666;9.434;2023-02-20T13:56:50;12.50;99.90
15676;DHT22;7938;47.666;9.434;2023-02-20T13:59:19;12.60;99.90
15676;DHT22;7938;47.666;9.434;2023-02-20T14:02:02;12.40;99.90
15676;DHT22;7938;47.666;9.434;2023-02-20T14:04:30;12.40;99.90
15676;DHT22;7938;47.666;9.434;2023-02-20T14:06:57;12.40;99.90
15676;DHT22;7938;47.666;9.434;2023-02-20T14:09:26;12.70;99.90
15676;DHT22;7938;47.666;9.434;2023-02-20T14:12:03;13.00;99.90
15676;DHT22;7938;47.666;9.434;2023-02-20T14:14:34;13.10;99.90
15676;DHT22;7938;47.666;9.434;2023-02-20T14:17:06;13.10;99.90
15676;DHT22;7938;47.666;9.434;2023-02-20T14:19:38;13.00;99.90
15676;DHT22;7938;47.666;9.434;2023-02-20T14:22:19;12.90;99.90
15676;DHT22;7938;47.666;9.434;2023-02-20T14:25:00;12.80;99.90
15676;DHT22;7938;47.666;9.434;2023-02-20T14:27:30;12.80;99.90
15676;DHT22;7938;47.666;9.434;2023-02-20T14:30:05;12.70;99.90
15676;DHT22;7938;47.666;9.434;2023-02-20T14:32:34;12.90;99.90
15676;DHT22;7938;47.666;9.434;2023-02-20T14:35:07;12.90;99.90
15676;DHT22;7938;47.666;9.434;2023-02-20T14:37:42;12.90;99.90
15676;DHT22;7938;47.666;9.434;2023-02-20T14:40:15;13.00;99.90
15676;DHT22;7938;47.666;9.434;2023-02-20T14:42:45;13.00;99.90
15676;DHT22;7938;47.666;9.434;2023-02-20T14:45:14;13.00;99.90
15676;DHT22;7938;47.666;9.434;2023-02-20T14:47:51;12.80;99.90
15676;DHT22;7938;47.666;9.434;2023-02-20T14:50:21;12.60;99.90
15676;DHT22;7938;47.666;9.434;2023-02-20T14:53:00;12.40;99.90
15676;DHT22;7938;47.666;9.434;2023-02-20T14:55:27;12.50;99.90
15676;DHT22;7938;47.666;9.434;2023-02-20T14:57:54;12.50;99.90
15676;DHT22;7938;47.666;9.434;2023-02-20T15:00:29;12.40;99.90
15676;DHT22;7938;47.666;9.434;2023-02-20T15:02:59;12.30;99.90
15676;DHT22;7938;47.666;9.434;2023-02-20T15:05:29;12.00;99.90
15676;DHT22;7938;47.666;9.434;2023-02-20T15:08:01;12.00;99.90
15676;DHT22;7938;47.666;9.434;2023-02-20T15:10:34;12.00;99.90
15676;DHT22;7938;47.666;9.434;2023-02-20T15:13:05;12.00;99.90
15676;DHT22;7938;47.666;9.434;2023-02-20T15:15:34;12.00;99.90
15676;DHT22;7938;47.666;9.434;2023-02-20T15:18:08;11.90;99.90
15676;DHT22;7938;47.666;9.434;2023-02-20T15:20:38;11.90;99.90
15676;DHT22;7938;47.666;9.434;2023-02-20T15:23:22;11.90;99.90
15676;DHT22;7938;47.666;9.434;2023-02-20T15:25:50;11.80;99.90
15676;DHT22;7938;47.666;9.434;2023-02-20T15:28:28;11.90;99.90
15676;DHT22;7938;47.666;9.434;2023-02-20T15:31:01;11.90;99.90
15676;DHT22;7938;47.666;9.434;2023-02-20T15:33:32;11.90;99.90
15676;DHT22;7938;47.666;9.434;2023-02-20T15:36:00;11.90;99.90
15676;DHT22;7938;47.666;9.434;2023-02-20T15:38:30;11.70;99.90
15676;DHT22;7938;47.666;9.434;2023-02-20T15:40:58;11.60;99.90
15676;DHT22;7938;47.666;9.434;2023-02-20T15:43:27;11.60;99.90
15676;DHT22;7938;47.666;9.434;2023-02-20T15:45:54;11.90;99.90
15676;DHT22;7938;47.666;9.434;2023-02-20T15:48:22;12.60;99.70
15676;DHT22;7938;47.666;9.434;2023-02-20T15:50:51;12.20;99.10
15676;DHT22;7938;47.666;9.434;2023-02-20T15:53:20;12.10;99.30
15676;DHT22;7938;47.666;9.434;2023-02-20T15:55:49;11.60;99.80
15676;DHT22;7938;47.666;9.434;2023-02-20T15:58:22;11.20;99.90
15676;DHT22;7938;47.666;9.434;2023-02-20T16:00:49;10.90;99.90
15676;DHT22;7938;47.666;9.434;2023-02-20T16:03:19;10.80;99.90
15676;DHT22;7938;47.666;9.434;2023-02-20T16:05:46;11.00;99.90
15676;DHT22;7938;47.666;9.434;2023-02-20T16:08:14;11.10;99.90
15676;DHT22;7938;47.666;9.434;2023-02-20T16:10:41;11.60;99.90
15676;DHT22;7938;47.666;9.434;2023-02-20T16:13:20;11.70;99.90
15676;DHT22;7938;47.666;9.434;2023-02-20T16:15:49;11.80;99.90
15676;DHT22;7938;47.666;9.434;2023-02-20T16:18:16;11.80;99.90
15676;DHT22;7938;47.666;9.434;2023-02-20T16:20:43;11.50;99.90
15676;DHT22;7938;47.666;9.434;2023-02-20T16:23:09;11.50;99.90
15676;DHT22;7938;47.666;9.434;2023-02-20T16:25:38;11.50;99.90
15676;DHT22;7938;47.666;9.434;2023-02-20T16:28:06;11.60;99.90
15676;DHT22;7938;47.666;9.434;2023-02-20T16:30:35;11.40;99.90
15676;DHT22;7938;47.666;9.434;2023-02-20T16:33:10;11.40;99.90
15676;DHT22;7938;47.666;9.434;2023-02-20T16:35:38;11.20;99.90
15676;DHT22;7938;47.666;9.434;2023-02-20T16:38:05;10.80;99.90
15676;DHT22;7938;47.666;9.434;2023-02-20T16:40:32;10.00;99.90
15676;DHT22;7938;47.666;9.434;2023-02-20T16:43:01;9.90;99.90
15676;DHT22;7938;47.666;9.434;2023-02-20T16:45:28;9.60;99.90
15676;DHT22;7938;47.666;9.434;2023-02-20T16:47:55;9.30;99.90
15676;DHT22;7938;47.666;9.434;2023-02-20T16:50:25;8.80;99.90
15676;DHT22;7938;47.666;9.434;2023-02-20T16:52:55;8.80;99.90
15676;DHT22;7938;47.666;9.434;2023-02-20T16:55:25;8.60;99.90
15676;DHT22;7938;47.666;9.434;2023-02-20T16:57:52;8.40;99.90
15676;DHT22;7938;47.666;9.434;2023-02-20T17:00:22;8.30;99.90
15676;DHT22;7938;47.666;9.434;2023-02-20T17:02:50;8.10;99.90
15676;DHT22;7938;47.666;9.434;2023-02-20T17:05:20;8.00;99.90
15676;DHT22;7938;47.666;9.434;2023-02-20T17:07:47;7.90;99.90
15676;DHT22;7938;47.666;9.434;2023-02-20T17:10:14;7.80;99.90
15676;DHT22;7938;47.666;9.434;2023-02-20T17:12:41;7.70;99.90
15676;DHT22;7938;47.666;9.434;2023-02-20T17:15:12;7.70;99.90
15676;DHT22;7938;47.666;9.434;2023-02-20T17:17:42;7.50;99.90
15676;DHT22;7938;47.666;9.434;2023-02-20T17:20:11;7.40;99.90
15676;DHT22;7938;47.666;9.434;2023-02-20T17:22:39;7.30;99.90
15676;DHT22;7938;47.666;9.434;2023-02-20T17:25:07;7.30;99.90
15676;DHT22;7938;47.666;9.434;2023-02-20T17:27:35;7.20;99.90
15676;DHT22;7938;47.666;9.434;2023-02-20T17:30:02;7.10;99.90
15676;DHT22;7938;47.666;9.434;2023-02-20T17:32:29;7.00;99.90
15676;DHT22;7938;47.666;9.434;2023-02-20T17:34:58;6.90;99.90
15676;DHT22;7938;47.666;9.434;2023-02-20T17:37:25;6.80;99.90
15676;DHT22;7938;47.666;9.434;2023-02-20T17:39:55;6.60;99.90
15676;DHT22;7938;47.666;9.434;2023-02-20T17:42:22;6.40;99.90
15676;DHT22;7938;47.666;9.434;2023-02-20T17:44:49;6.40;99.90
15676;DHT22;7938;47.666;9.434;2023-02-20T17:47:17;6.30;99.90
15676;DHT22;7938;47.666;9.434;2023-02-20T17:49:47;6.30;99.90
15676;DHT22;7938;47.666;9.434;2023-02-20T17:52:16;6.20;99.90
15676;DHT22;7938;47.666;9.434;2023-02-20T17:54:44;6.20;99.90
15676;DHT22;7938;47.666;9.434;2023-02-20T17:57:11;6.10;99.90
15676;DHT22;7938;47.666;9.434;2023-02-20T17:59:39;6.00;99.90
15676;DHT22;7938;47.666;9.434;2023-02-20T18:02:07;6.00;99.90
15676;DHT22;7938;47.666;9.434;2023-02-20T18:04:36;6.00;99.90
15676;DHT22;7938;47.666;9.434;2023-02-20T18:07:04;6.00;99.90
15676;DHT22;7938;47.666;9.434;2023-02-20T18:09:34;5.90;99.90
15676;DHT22;7938;47.666;9.434;2023-02-20T18:12:01;5.80;99.90
15676;DHT22;7938;47.666;9.434;2023-02-20T18:14:28;5.80;99.90
15676;DHT22;7938;47.666;9.434;2023-02-20T18:16:56;5.70;99.90
15676;DHT22;7938;47.666;9.434;2023-02-20T18:19:23;5.70;99.90
15676;DHT22;7938;47.666;9.434;2023-02-20T18:21:50;5.60;99.90
15676;DHT22;7938;47.666;9.434;2023-02-20T18:24:20;5.60;99.90
15676;DHT22;7938;47.666;9.434;2023-02-20T18:26:49;5.50;99.90
15676;DHT22;7938;47.666;9.434;2023-02-20T18:29:17;5.40;99.90
15676;DHT22;7938;47.666;9.434;2023-02-20T18:31:45;5.40;99.90
15676;DHT22;7938;47.666;9.434;2023-02-20T18:34:12;5.30;99.90
15676;DHT22;7938;47.666;9.434;2023-02-20T18:36:39;5.30;99.90
15676;DHT22;7938;47.666;9.434;2023-02-20T18:39:06;5.30;99.90
15676;DHT22;7938;47.666;9.434;2023-02-20T18:41:34;5.10;99.90
15676;DHT22;7938;47.666;9.434;2023-02-20T18:44:03;5.10;99.90
15676;DHT22;7938;47.666;9.434;2023-02-20T18:46:32;5.10;99.90
15676;DHT22;7938;47.666;9.434;2023-02-20T18:49:00;5.00;99.90
15676;DHT22;7938;47.666;9.434;2023-02-20T18:51:28;5.00;99.90
15676;DHT22;7938;47.666;9.434;2023-02-20T18:53:56;5.00;99.90
15676;DHT22;7938;47.666;9.434;2023-02-20T18:56:24;5.00;99.90
15676;DHT22;7938;47.666;9.434;2023-02-20T18:58:52;5.00;99.90
15676;DHT22;7938;47.666;9.434;2023-02-20T19:01:20;4.90;99.90
15676;DHT22;7938;47.666;9.434;2023-02-20T19:03:49;4.90;99.90
15676;DHT22;7938;47.666;9.434;2023-02-20T19:06:24;4.80;99.90
15676;DHT22;7938;47.666;9.434;2023-02-20T19:08:52;4.80;99.90
15676;DHT22;7938;47.666;9.434;2023-02-20T19:11:19;4.80;99.90
15676;DHT22;7938;47.666;9.434;2023-02-20T19:13:46;4.80;99.90
15676;DHT22;7938;47.666;9.434;2023-02-20T19:16:13;4.80;99.90
15676;DHT22;7938;47.666;9.434;2023-02-20T19:18:42;4.80;99.90
15676;DHT22;7938;47.666;9.434;2023-02-20T19:21:10;4.70;99.90
15676;DHT22;7938;47.666;9.434;2023-02-20T19:23:38;4.60;99.90
15676;DHT22;7938;47.666;9.434;2023-02-20T19:26:06;4.60;99.90
15676;DHT22;7938;47.666;9.434;2023-02-20T19:28:33;4.60;99.90
15676;DHT22;7938;47.666;9.434;2023-02-20T19:31:00;4.50;99.90
15676;DHT22;7938;47.666;9.434;2023-02-20T19:33:27;4.50;99.90
15676;DHT22;7938;47.666;9.434;2023-02-20T19:35:56;4.40;99.90
15676;DHT22;7938;47.666;9.434;2023-02-20T19:38:23;4.40;99.90
15676;DHT22;7938;47.666;9.434;2023-02-20T19:40:50;4.40;99.90
15676;DHT22;7938;47.666;9.434;2023-02-20T19:43:17;4.40;99.90
15676;DHT22;7938;47.666;9.434;2023-02-20T19:45:44;4.30;99.90
15676;DHT22;7938;47.666;9.434;2023-02-20T19:48:13;4.30;99.90
15676;DHT22;7938;47.666;9.434;2023-02-20T19:50:40;4.10;99.90
15676;DHT22;7938;47.666;9.434;2023-02-20T19:53:09;4.10;99.90
15676;DHT22;7938;47.666;9.434;2023-02-20T19:55:36;4.00;99.90
15676;DHT22;7938;47.666;9.434;2023-02-20T19:58:03;4.00;99.90
15676;DHT22;7938;47.666;9.434;2023-02-20T20:00:30;4.00;99.90
15676;DHT22;7938;47.666;9.434;2023-02-20T20:02:58;3.90;99.90
15676;DHT22;7938;47.666;9.434;2023-02-20T20:05:25;4.20;99.90
15676;DHT22;7938;47.666;9.434;2023-02-20T20:07:53;4.00;99.90
15676;DHT22;7938;47.666;9.434;2023-02-20T20:10:21;4.00;99.90
15676;DHT22;7938;47.666;9.434;2023-02-20T20:12:49;4.10;99.90
15676;DHT22;7938;47.666;9.434;2023-02-20T20:15:18;4.00;99.90
15676;DHT22;7938;47.666;9.434;2023-02-20T20:17:45;3.90;99.90
15676;DHT22;7938;47.666;9.434;2023-02-20T20:20:13;3.90;99.90
15676;DHT22;7938;47.666;9.434;2023-02-20T20:22:41;3.80;99.90
15676;DHT22;7938;47.666;9.434;2023-02-20T20:25:08;3.80;99.90
15676;DHT22;7938;47.666;9.434;2023-02-20T20:27:38;3.80;99.90
15676;DHT22;7938;47.666;9.434;2023-02-20T20:30:07;3.80;99.90
15676;DHT22;7938;47.666;9.434;2023-02-20T20:32:35;3.60;99.90
15676;DHT22;7938;47.666;9.434;2023-02-20T20:35:02;3.60;99.90
15676;DHT22;7938;47.666;9.434;2023-02-20T20:37:29;3.60;99.90
15676;DHT22;7938;47.666;9.434;2023-02-20T20:39:57;3.50;99.90
15676;DHT22;7938;47.666;9.434;2023-02-20T20:42:26;3.50;99.90
15676;DHT22;7938;47.666;9.434;2023-02-20T20:44:56;3.50;99.90
15676;DHT22;7938;47.666;9.434;2023-02-20T20:47:25;3.50;99.90
15676;DHT22;7938;47.666;9.434;2023-02-20T20:49:53;3.50;99.90
15676;DHT22;7938;47.666;9.434;2023-02-20T20:52:21;3.50;99.90
15676;DHT22;7938;47.666;9.434;2023-02-20T20:54:49;3.50;99.90
15676;DHT22;7938;47.666;9.434;2023-02-20T20:57:18;3.50;99.90
15676;DHT22;7938;47.666;9.434;2023-02-20T20:59:46;3.40;99.90
15676;DHT22;7938;47.666;9.434;2023-02-20T21:02:16;3.30;99.90
15676;DHT22;7938;47.666;9.434;2023-02-20T21:04:45;3.20;99.90
15676;DHT22;7938;47.666;9.434;2023-02-20T21:07:13;3.20;99.90
15676;DHT22;7938;47.666;9.434;2023-02-20T21:09:41;3.10;99.90
15676;DHT22;7938;47.666;9.434;2023-02-20T21:12:09;3.10;99.90
15676;DHT22;7938;47.666;9.434;2023-02-20T21:14:36;3.00;99.90
15676;DHT22;7938;47.666;9.434;2023-02-20T21:17:03;3.00;99.90
15676;DHT22;7938;47.666;9.434;2023-02-20T21:19:32;3.00;99.90
15676;DHT22;7938;47.666;9.434;2023-02-20T21:21:59;2.90;99.90
15676;DHT22;7938;47.666;9.434;2023-02-20T21:24:27;3.00;99.90
15676;DHT22;7938;47.666;9.434;2023-02-20T21:26:54;2.90;99.90
15676;DHT22;7938;47.666;9.434;2023-02-20T21:29:21;2.90;99.90
15676;DHT22;7938;47.666;9.434;2023-02-20T21:31:49;2.90;99.90